sensor_id;sensor_type;location;lat;lon;timestamp;pressure;altitude;pressure_sealevel;temperature;humidity
68456;BME280;55437;55.046;38.838;2023-02-22T00:00:40;98496.56;;;-11.63;56.68
68456;BME280;55437;55.046;38.838;2023-02-22T00:05:52;98511.13;;;-11.71;56.53
68456;BME280;55437;55.046;38.838;2023-02-22T00:08:21;98509.84;;;-11.61;55.90
68456;BME280;55437;55.046;38.838;2023-02-22T00:10:48;98520.78;;;-11.54;56.10
68456;BME280;55437;55.046;38.838;2023-02-22T00:13:42;98510.75;;;-11.57;55.95
68456;BME280;55437;55.046;38.838;2023-02-22T00:16:14;98529.16;;;-11.51;56.22
68456;BME280;55437;55.046;38.838;2023-02-22T00:18:41;98522.34;;;-11.56;55.91
68456;BME280;55437;55.046;38.838;2023-02-22T00:21:07;98534.38;;;-11.67;55.95
68456;BME280;55437;55.046;38.838;2023-02-22T00:23:35;98539.97;;;-11.73;56.29
68456;BME280;55437;55.046;38.838;2023-02-22T00:26:05;98536.72;;;-11.70;56.23
68456;BME280;55437;55.046;38.838;2023-02-22T00:28:53;98540.56;;;-11.80;56.40
68456;BME280;55437;55.046;38.838;2023-02-22T00:31:20;98535.00;;;-11.73;56.42
68456;BME280;55437;55.046;38.838;2023-02-22T00:33:48;98538.25;;;-11.75;55.97
68456;BME280;55437;55.046;38.838;2023-02-22T00:36:16;98539.66;;;-11.82;56.10
68456;BME280;55437;55.046;38.838;2023-02-22T00:38:41;98542.09;;;-11.83;56.47
68456;BME280;55437;55.046;38.838;2023-02-22T00:41:08;98536.66;;;-11.97;55.88
68456;BME280;55437;55.046;38.838;2023-02-22T00:43:34;98549.72;;;-12.01;56.63
68456;BME280;55437;55.046;38.838;2023-02-22T00:46:00;98551.63;;;-12.16;56.74
68456;BME280;55437;55.046;38.838;2023-02-22T00:48:26;98551.50;;;-12.19;57.06
68456;BME280;55437;55.046;38.838;2023-02-22T00:50:53;98556.00;;;-12.31;57.09
68456;BME280;55437;55.046;38.838;2023-02-22T00:53:21;98558.13;;;-12.18;57.04
68456;BME280;55437;55.046;38.838;2023-02-22T00:55:47;98564.31;;;-12.29;57.11
68456;BME280;55437;55.046;38.838;2023-02-22T00:58:13;98563.81;;;-12.43;57.99
68456;BME280;55437;55.046;38.838;2023-02-22T01:00:40;98565.88;;;-12.31;57.30
68456;BME280;55437;55.046;38.838;2023-02-22T01:03:08;98561.19;;;-12.48;57.31
68456;BME280;55437;55.046;38.838;2023-02-22T01:05:35;98566.41;;;-12.40;57.41
68456;BME280;55437;55.046;38.838;2023-02-22T01:08:05;98571.47;;;-12.37;57.04
68456;BME280;55437;55.046;38.838;2023-02-22T01:10:33;98572.91;;;-12.42;56.96
68456;BME280;55437;55.046;38.838;2023-02-22T01:13:00;98572.63;;;-12.50;57.07
68456;BME280;55437;55.046;38.838;2023-02-22T01:15:30;98578.63;;;-12.43;57.13
68456;BME280;55437;55.046;38.838;2023-02-22T01:17:58;98580.78;;;-12.52;57.63
68456;BME280;55437;55.046;38.838;2023-02-22T01:20:25;98591.63;;;-12.49;57.56
68456;BME280;55437;55.046;38.838;2023-02-22T01:22:53;98596.47;;;-12.29;57.14
68456;BME280;55437;55.046;38.838;2023-02-22T01:25:25;98604.00;;;-12.26;57.27
68456;BME280;55437;55.046;38.838;2023-02-22T01:27:52;98595.53;;;-12.33;56.63
68456;BME280;55437;55.046;38.838;2023-02-22T01:30:24;98599.38;;;-12.40;56.64
68456;BME280;55437;55.046;38.838;2023-02-22T01:32:50;98611.16;;;-12.34;56.93
68456;BME280;55437;55.046;38.838;2023-02-22T01:35:22;98616.19;;;-12.31;57.00
68456;BME280;55437;55.046;38.838;2023-02-22T01:37:49;98618.88;;;-12.47;57.02
68456;BME280;55437;55.046;38.838;2023-02-22T01:40:39;98624.75;;;-12.45;57.12
68456;BME280;55437;55.046;38.838;2023-02-22T01:43:27;98626.25;;;-12.49;56.80
68456;BME280;55437;55.046;38.838;2023-02-22T01:46:19;98625.88;;;-12.58;57.13
68456;BME280;55437;55.046;38.838;2023-02-22T01:48:59;98641.72;;;-12.53;57.29
68456;BME280;55437;55.046;38.838;2023-02-22T01:51:29;98645.75;;;-12.55;56.68
68456;BME280;55437;55.046;38.838;2023-02-22T01:54:06;98653.16;;;-12.56;57.40
68456;BME280;55437;55.046;38.838;2023-02-22T01:56:37;98650.00;;;-12.52;57.03
68456;BME280;55437;55.046;38.838;2023-02-22T01:59:08;98650.41;;;-12.42;56.22
68456;BME280;55437;55.046;38.838;2023-02-22T02:01:37;98650.41;;;-12.42;56.64
68456;BME280;55437;55.046;38.838;2023-02-22T02:04:07;98650.78;;;-12.32;56.06
68456;BME280;55437;55.046;38.838;2023-02-22T02:06:34;98654.56;;;-12.41;56.29
68456;BME280;55437;55.046;38.838;2023-02-22T02:09:46;98665.72;;;-12.50;56.43
68456;BME280;55437;55.046;38.838;2023-02-22T02:12:19;98671.88;;;-12.61;56.96
68456;BME280;55437;55.046;38.838;2023-02-22T02:14:46;98666.81;;;-12.64;56.85
68456;BME280;55437;55.046;38.838;2023-02-22T02:17:15;98668.78;;;-12.77;57.04
68456;BME280;55437;55.046;38.838;2023-02-22T02:20:08;98669.75;;;-12.94;58.02
68456;BME280;55437;55.046;38.838;2023-02-22T02:34:03;98685.56;;;-12.89;56.84
68456;BME280;55437;55.046;38.838;2023-02-22T02:36:43;98694.09;;;-13.01;57.24
68456;BME280;55437;55.046;38.838;2023-02-22T02:41:51;98690.44;;;-12.90;57.64
68456;BME280;55437;55.046;38.838;2023-02-22T02:44:32;98703.72;;;-12.88;57.44
68456;BME280;55437;55.046;38.838;2023-02-22T02:47:26;98712.97;;;-12.84;57.10
68456;BME280;55437;55.046;38.838;2023-02-22T02:49:57;98711.56;;;-12.78;57.14
68456;BME280;55437;55.046;38.838;2023-02-22T02:52:26;98707.59;;;-12.74;56.57
68456;BME280;55437;55.046;38.838;2023-02-22T02:54:55;98720.22;;;-12.87;56.77
68456;BME280;55437;55.046;38.838;2023-02-22T02:57:21;98716.91;;;-12.88;56.88
68456;BME280;55437;55.046;38.838;2023-02-22T02:59:49;98720.56;;;-12.99;57.79
68456;BME280;55437;55.046;38.838;2023-02-22T03:02:24;98726.81;;;-13.07;57.92
68456;BME280;55437;55.046;38.838;2023-02-22T03:07:43;98747.34;;;-12.89;56.87
68456;BME280;55437;55.046;38.838;2023-02-22T03:12:48;98748.63;;;-12.58;56.78
68456;BME280;55437;55.046;38.838;2023-02-22T03:18:23;98753.00;;;-12.72;56.32
68456;BME280;55437;55.046;38.838;2023-02-22T03:23:46;98755.66;;;-12.67;56.66
68456;BME280;55437;55.046;38.838;2023-02-22T03:26:21;98750.78;;;-12.66;56.53
68456;BME280;55437;55.046;38.838;2023-02-22T03:28:53;98758.53;;;-12.58;56.44
68456;BME280;55437;55.046;38.838;2023-02-22T03:31:33;98760.66;;;-12.47;56.45
68456;BME280;55437;55.046;38.838;2023-02-22T03:34:08;98762.34;;;-12.46;55.73
68456;BME280;55437;55.046;38.838;2023-02-22T03:36:41;98771.91;;;-12.53;56.07
68456;BME280;55437;55.046;38.838;2023-02-22T03:39:12;98768.84;;;-12.67;55.99
68456;BME280;55437;55.046;38.838;2023-02-22T03:41:47;98784.06;;;-12.77;56.29
68456;BME280;55437;55.046;38.838;2023-02-22T03:44:22;98784.22;;;-12.74;56.69
68456;BME280;55437;55.046;38.838;2023-02-22T03:46:53;98786.47;;;-12.79;56.73
68456;BME280;55437;55.046;38.838;2023-02-22T03:49:34;98773.16;;;-12.82;56.76
68456;BME280;55437;55.046;38.838;2023-02-22T03:52:03;98782.66;;;-12.72;56.12
68456;BME280;55437;55.046;38.838;2023-02-22T03:54:31;98787.84;;;-12.66;55.98
68456;BME280;55437;55.046;38.838;2023-02-22T04:00:07;98786.78;;;-13.09;56.57
68456;BME280;55437;55.046;38.838;2023-02-22T04:02:40;98787.06;;;-13.03;56.56
68456;BME280;55437;55.046;38.838;2023-02-22T04:05:10;98789.66;;;-13.00;56.60
68456;BME280;55437;55.046;38.838;2023-02-22T04:07:37;98796.81;;;-13.06;56.95
68456;BME280;55437;55.046;38.838;2023-02-22T04:10:04;98805.50;;;-13.16;56.82
68456;BME280;55437;55.046;38.838;2023-02-22T04:12:34;98797.75;;;-13.04;56.80
68456;BME280;55437;55.046;38.838;2023-02-22T04:15:04;98805.69;;;-12.92;56.83
68456;BME280;55437;55.046;38.838;2023-02-22T04:17:30;98810.34;;;-12.79;56.47
68456;BME280;55437;55.046;38.838;2023-02-22T04:19:57;98811.00;;;-12.83;55.83
68456;BME280;55437;55.046;38.838;2023-02-22T04:22:25;98809.47;;;-12.81;55.70
68456;BME280;55437;55.046;38.838;2023-02-22T04:24:51;98812.50;;;-12.87;56.00
68456;BME280;55437;55.046;38.838;2023-02-22T04:27:19;98818.50;;;-12.82;55.73
68456;BME280;55437;55.046;38.838;2023-02-22T04:29:45;98820.56;;;-12.71;56.04
68456;BME280;55437;55.046;38.838;2023-02-22T04:32:10;98821.22;;;-12.76;55.40
68456;BME280;55437;55.046;38.838;2023-02-22T04:34:36;98818.53;;;-12.99;56.08
68456;BME280;55437;55.046;38.838;2023-02-22T04:37:02;98827.91;;;-12.92;56.38
68456;BME280;55437;55.046;38.838;2023-02-22T04:39:28;98830.50;;;-12.89;55.68
68456;BME280;55437;55.046;38.838;2023-02-22T04:41:54;98833.88;;;-12.87;56.12
68456;BME280;55437;55.046;38.838;2023-02-22T04:44:20;98847.31;;;-12.82;55.49
68456;BME280;55437;55.046;38.838;2023-02-22T04:46:46;98833.09;;;-12.86;55.68
68456;BME280;55437;55.046;38.838;2023-02-22T04:49:13;98839.00;;;-13.02;56.13
68456;BME280;55437;55.046;38.838;2023-02-22T04:51:41;98845.78;;;-12.98;55.86
68456;BME280;55437;55.046;38.838;2023-02-22T04:54:10;98832.00;;;-12.93;55.95
68456;BME280;55437;55.046;38.838;2023-02-22T04:56:41;98837.97;;;-12.88;55.65
68456;BME280;55437;55.046;38.838;2023-02-22T04:59:07;98842.66;;;-12.94;55.55
68456;BME280;55437;55.046;38.838;2023-02-22T05:01:34;98835.63;;;-13.04;55.79
68456;BME280;55437;55.046;38.838;2023-02-22T05:04:19;98844.00;;;-13.00;55.89
68456;BME280;55437;55.046;38.838;2023-02-22T05:06:47;98856.25;;;-12.84;55.85
68456;BME280;55437;55.046;38.838;2023-02-22T05:09:13;98843.84;;;-12.66;55.49
68456;BME280;55437;55.046;38.838;2023-02-22T05:11:39;98849.72;;;-12.45;55.27
68456;BME280;55437;55.046;38.838;2023-02-22T05:14:05;98861.81;;;-12.32;54.85
68456;BME280;55437;55.046;38.838;2023-02-22T05:16:31;98852.28;;;-12.44;54.90
68456;BME280;55437;55.046;38.838;2023-02-22T05:18:57;98867.09;;;-12.24;54.53
68456;BME280;55437;55.046;38.838;2023-02-22T05:21:22;98867.78;;;-12.08;53.94
68456;BME280;55437;55.046;38.838;2023-02-22T05:23:48;98876.59;;;-11.93;53.65
68456;BME280;55437;55.046;38.838;2023-02-22T05:26:14;98880.91;;;-11.89;53.61
68456;BME280;55437;55.046;38.838;2023-02-22T05:28:40;98888.88;;;-11.76;53.36
68456;BME280;55437;55.046;38.838;2023-02-22T05:31:07;98887.84;;;-11.60;52.90
68456;BME280;55437;55.046;38.838;2023-02-22T05:33:33;98899.19;;;-11.23;52.81
68456;BME280;55437;55.046;38.838;2023-02-22T05:36:00;98901.88;;;-11.17;52.76
68456;BME280;55437;55.046;38.838;2023-02-22T05:38:25;98903.13;;;-11.06;52.37
68456;BME280;55437;55.046;38.838;2023-02-22T05:40:51;98899.31;;;-10.98;52.13
68456;BME280;55437;55.046;38.838;2023-02-22T05:43:17;98904.84;;;-10.83;52.04
68456;BME280;55437;55.046;38.838;2023-02-22T05:45:44;98910.44;;;-10.66;51.83
68456;BME280;55437;55.046;38.838;2023-02-22T05:48:09;98910.59;;;-10.62;51.13
68456;BME280;55437;55.046;38.838;2023-02-22T05:50:37;98899.66;;;-10.67;51.17
68456;BME280;55437;55.046;38.838;2023-02-22T05:53:03;98911.94;;;-10.70;51.16
68456;BME280;55437;55.046;38.838;2023-02-22T05:55:30;98915.09;;;-10.74;50.55
68456;BME280;55437;55.046;38.838;2023-02-22T05:57:56;98908.16;;;-10.82;50.81
68456;BME280;55437;55.046;38.838;2023-02-22T06:00:24;98918.16;;;-11.24;51.11
68456;BME280;55437;55.046;38.838;2023-02-22T06:02:56;98917.84;;;-11.52;51.89
68456;BME280;55437;55.046;38.838;2023-02-22T06:05:22;98910.78;;;-11.64;51.72
68456;BME280;55437;55.046;38.838;2023-02-22T06:07:48;98915.88;;;-11.61;51.48
68456;BME280;55437;55.046;38.838;2023-02-22T06:10:14;98930.84;;;-11.37;51.15
68456;BME280;55437;55.046;38.838;2023-02-22T06:12:39;98915.50;;;-11.49;51.84
68456;BME280;55437;55.046;38.838;2023-02-22T06:15:06;98928.19;;;-11.42;51.99
68456;BME280;55437;55.046;38.838;2023-02-22T06:17:32;98924.78;;;-11.44;51.65
68456;BME280;55437;55.046;38.838;2023-02-22T06:20:20;98924.63;;;-11.27;51.34
68456;BME280;55437;55.046;38.838;2023-02-22T06:22:51;98927.56;;;-11.15;50.94
68456;BME280;55437;55.046;38.838;2023-02-22T06:25:23;98927.91;;;-11.06;50.74
68456;BME280;55437;55.046;38.838;2023-02-22T06:27:49;98939.34;;;-10.89;50.60
68456;BME280;55437;55.046;38.838;2023-02-22T06:30:18;98930.78;;;-10.75;50.15
68456;BME280;55437;55.046;38.838;2023-02-22T06:32:44;98930.09;;;-10.93;50.14
68456;BME280;55437;55.046;38.838;2023-02-22T06:35:10;98939.56;;;-10.61;49.66
68456;BME280;55437;55.046;38.838;2023-02-22T06:37:36;98941.91;;;-10.19;49.30
68456;BME280;55437;55.046;38.838;2023-02-22T06:40:03;98953.22;;;-10.02;49.09
68456;BME280;55437;55.046;38.838;2023-02-22T06:42:30;98952.84;;;-10.12;48.82
68456;BME280;55437;55.046;38.838;2023-02-22T06:44:55;98957.03;;;-10.11;48.75
68456;BME280;55437;55.046;38.838;2023-02-22T06:47:21;98957.75;;;-10.38;49.13
68456;BME280;55437;55.046;38.838;2023-02-22T06:49:57;98947.47;;;-10.25;48.96
68456;BME280;55437;55.046;38.838;2023-02-22T06:52:24;98951.78;;;-10.21;48.60
68456;BME280;55437;55.046;38.838;2023-02-22T06:54:50;98953.88;;;-10.31;48.97
68456;BME280;55437;55.046;38.838;2023-02-22T06:57:16;98957.13;;;-10.08;48.61
68456;BME280;55437;55.046;38.838;2023-02-22T06:59:42;98957.94;;;-9.86;48.43
68456;BME280;55437;55.046;38.838;2023-02-22T07:02:11;98971.44;;;-9.77;48.16
68456;BME280;55437;55.046;38.838;2023-02-22T07:04:37;98961.63;;;-9.98;47.87
68456;BME280;55437;55.046;38.838;2023-02-22T07:07:03;98952.44;;;-9.52;47.58
68456;BME280;55437;55.046;38.838;2023-02-22T07:09:28;98964.75;;;-9.56;47.52
68456;BME280;55437;55.046;38.838;2023-02-22T07:11:54;98962.75;;;-9.65;47.63
68456;BME280;55437;55.046;38.838;2023-02-22T07:14:20;98971.44;;;-9.28;47.61
68456;BME280;55437;55.046;38.838;2023-02-22T07:16:46;98969.38;;;-9.15;46.86
68456;BME280;55437;55.046;38.838;2023-02-22T07:19:12;98972.59;;;-8.92;46.33
68456;BME280;55437;55.046;38.838;2023-02-22T07:21:38;98979.41;;;-8.59;45.87
68456;BME280;55437;55.046;38.838;2023-02-22T07:24:04;98979.97;;;-7.80;45.15
68456;BME280;55437;55.046;38.838;2023-02-22T07:26:37;98980.09;;;-7.44;44.36
68456;BME280;55437;55.046;38.838;2023-02-22T07:29:04;98974.69;;;-6.93;44.01
68456;BME280;55437;55.046;38.838;2023-02-22T07:31:34;98988.34;;;-6.40;43.38
68456;BME280;55437;55.046;38.838;2023-02-22T07:34:00;98985.56;;;-6.16;43.01
68456;BME280;55437;55.046;38.838;2023-02-22T07:36:28;98985.91;;;-5.98;41.75
68456;BME280;55437;55.046;38.838;2023-02-22T07:38:53;98991.66;;;-6.02;42.00
68456;BME280;55437;55.046;38.838;2023-02-22T07:41:19;98988.75;;;-6.22;42.10
68456;BME280;55437;55.046;38.838;2023-02-22T07:43:47;99004.50;;;-6.24;42.57
68456;BME280;55437;55.046;38.838;2023-02-22T07:46:13;99000.94;;;-6.35;42.73
68456;BME280;55437;55.046;38.838;2023-02-22T07:48:39;99009.69;;;-6.15;41.80
68456;BME280;55437;55.046;38.838;2023-02-22T07:51:05;99011.88;;;-5.90;41.93
68456;BME280;55437;55.046;38.838;2023-02-22T07:53:31;99012.31;;;-5.65;41.23
68456;BME280;55437;55.046;38.838;2023-02-22T07:56:00;99021.22;;;-5.36;41.05
68456;BME280;55437;55.046;38.838;2023-02-22T07:58:28;99007.75;;;-4.96;40.34
68456;BME280;55437;55.046;38.838;2023-02-22T08:00:54;99019.94;;;-5.14;40.45
68456;BME280;55437;55.046;38.838;2023-02-22T08:03:22;99016.69;;;-4.59;39.61
68456;BME280;55437;55.046;38.838;2023-02-22T08:05:51;99016.50;;;-4.69;39.39
68456;BME280;55437;55.046;38.838;2023-02-22T08:08:17;99013.31;;;-4.58;39.13
68456;BME280;55437;55.046;38.838;2023-02-22T08:10:44;99027.63;;;-5.03;39.12
68456;BME280;55437;55.046;38.838;2023-02-22T08:13:10;99015.44;;;-4.82;39.22
68456;BME280;55437;55.046;38.838;2023-02-22T08:15:37;99021.28;;;-4.85;39.06
68456;BME280;55437;55.046;38.838;2023-02-22T08:18:06;99015.84;;;-4.58;38.71
68456;BME280;55437;55.046;38.838;2023-02-22T08:20:37;99015.22;;;-4.43;38.50
68456;BME280;55437;55.046;38.838;2023-02-22T08:23:05;99014.72;;;-4.77;38.52
68456;BME280;55437;55.046;38.838;2023-02-22T08:25:31;99029.94;;;-5.14;39.05
68456;BME280;55437;55.046;38.838;2023-02-22T08:28:09;99037.03;;;-5.37;38.96
68456;BME280;55437;55.046;38.838;2023-02-22T08:30:37;99037.03;;;-5.37;38.96
68456;BME280;55437;55.046;38.838;2023-02-22T08:33:04;99044.09;;;-5.61;39.33
68456;BME280;55437;55.046;38.838;2023-02-22T08:35:31;99048.28;;;-5.60;39.45
68456;BME280;55437;55.046;38.838;2023-02-22T08:38:03;99050.69;;;-5.65;39.27
68456;BME280;55437;55.046;38.838;2023-02-22T08:40:31;99056.34;;;-5.73;39.14
68456;BME280;55437;55.046;38.838;2023-02-22T08:42:57;99065.25;;;-5.86;39.72
68456;BME280;55437;55.046;38.838;2023-02-22T08:45:23;99062.41;;;-6.03;40.10
68456;BME280;55437;55.046;38.838;2023-02-22T08:47:50;99060.22;;;-6.28;39.88
68456;BME280;55437;55.046;38.838;2023-02-22T08:50:20;99072.53;;;-6.36;40.36
68456;BME280;55437;55.046;38.838;2023-02-22T08:52:49;99063.00;;;-6.52;40.96
68456;BME280;55437;55.046;38.838;2023-02-22T08:55:18;99070.78;;;-6.38;40.95
68456;BME280;55437;55.046;38.838;2023-02-22T08:57:44;99067.16;;;-6.52;41.14
68456;BME280;55437;55.046;38.838;2023-02-22T09:00:11;99071.06;;;-6.62;40.88
68456;BME280;55437;55.046;38.838;2023-02-22T09:02:37;99074.59;;;-6.88;41.26
68456;BME280;55437;55.046;38.838;2023-02-22T09:05:03;99073.25;;;-7.09;41.61
68456;BME280;55437;55.046;38.838;2023-02-22T09:07:30;99070.97;;;-7.00;41.27
68456;BME280;55437;55.046;38.838;2023-02-22T09:09:56;99068.16;;;-6.80;41.92
68456;BME280;55437;55.046;38.838;2023-02-22T09:12:21;99068.47;;;-7.01;41.32
68456;BME280;55437;55.046;38.838;2023-02-22T09:14:49;99063.22;;;-7.10;41.81
68456;BME280;55437;55.046;38.838;2023-02-22T09:17:14;99067.47;;;-6.73;41.32
68456;BME280;55437;55.046;38.838;2023-02-22T09:19:43;99075.50;;;-6.50;41.07
68456;BME280;55437;55.046;38.838;2023-02-22T09:22:10;99073.03;;;-6.49;41.51
68456;BME280;55437;55.046;38.838;2023-02-22T09:24:36;99074.69;;;-6.49;41.83
68456;BME280;55437;55.046;38.838;2023-02-22T09:27:02;99071.78;;;-6.68;41.42
68456;BME280;55437;55.046;38.838;2023-02-22T09:29:30;99071.22;;;-6.91;41.52
68456;BME280;55437;55.046;38.838;2023-02-22T09:31:57;99078.88;;;-6.83;41.84
68456;BME280;55437;55.046;38.838;2023-02-22T09:34:24;99079.34;;;-6.65;42.35
68456;BME280;55437;55.046;38.838;2023-02-22T09:36:55;99074.09;;;-6.39;41.95
68456;BME280;55437;55.046;38.838;2023-02-22T09:39:22;99087.09;;;-6.54;41.63
68456;BME280;55437;55.046;38.838;2023-02-22T09:42:30;99090.88;;;-6.70;41.42
68456;BME280;55437;55.046;38.838;2023-02-22T09:45:07;99086.72;;;-6.69;42.00
68456;BME280;55437;55.046;38.838;2023-02-22T09:47:43;99092.84;;;-6.57;42.26
68456;BME280;55437;55.046;38.838;2023-02-22T09:50:16;99085.16;;;-6.30;41.54
68456;BME280;55437;55.046;38.838;2023-02-22T09:55:34;99086.94;;;-5.85;41.36
68456;BME280;55437;55.046;38.838;2023-02-22T09:58:06;99090.91;;;-5.96;41.37
68456;BME280;55437;55.046;38.838;2023-02-22T10:00:36;99082.09;;;-6.18;41.77
68456;BME280;55437;55.046;38.838;2023-02-22T10:05:38;99082.81;;;-6.22;41.40
68456;BME280;55437;55.046;38.838;2023-02-22T10:08:14;99090.75;;;-6.02;41.10
68456;BME280;55437;55.046;38.838;2023-02-22T10:10:42;99096.94;;;-5.85;41.02
68456;BME280;55437;55.046;38.838;2023-02-22T10:16:19;99098.47;;;-6.65;41.83
68456;BME280;55437;55.046;38.838;2023-02-22T10:19:05;99101.81;;;-6.65;42.38
68456;BME280;55437;55.046;38.838;2023-02-22T10:26:42;99118.78;;;-6.50;41.66
68456;BME280;55437;55.046;38.838;2023-02-22T10:29:19;99113.72;;;-6.55;41.63
68456;BME280;55437;55.046;38.838;2023-02-22T10:31:55;99108.38;;;-6.68;41.83
68456;BME280;55437;55.046;38.838;2023-02-22T10:34:24;99102.72;;;-6.61;42.04
68456;BME280;55437;55.046;38.838;2023-02-22T10:36:56;99117.41;;;-6.39;42.06
68456;BME280;55437;55.046;38.838;2023-02-22T10:39:31;99115.94;;;-6.31;41.95
68456;BME280;55437;55.046;38.838;2023-02-22T10:42:06;99119.94;;;-6.37;41.81
68456;BME280;55437;55.046;38.838;2023-02-22T10:44:34;99119.22;;;-6.33;41.88
68456;BME280;55437;55.046;38.838;2023-02-22T10:47:04;99120.78;;;-6.37;41.83
68456;BME280;55437;55.046;38.838;2023-02-22T10:49:39;99121.59;;;-6.38;41.64
68456;BME280;55437;55.046;38.838;2023-02-22T10:52:18;99124.59;;;-6.51;42.34
68456;BME280;55437;55.046;38.838;2023-02-22T10:54:49;99132.97;;;-6.49;42.06
68456;BME280;55437;55.046;38.838;2023-02-22T10:57:21;99129.75;;;-6.45;42.44
68456;BME280;55437;55.046;38.838;2023-02-22T10:59:49;99138.94;;;-6.44;42.23
68456;BME280;55437;55.046;38.838;2023-02-22T11:02:20;99128.22;;;-6.38;42.30
68456;BME280;55437;55.046;38.838;2023-02-22T11:04:51;99139.03;;;-6.39;42.63
68456;BME280;55437;55.046;38.838;2023-02-22T11:07:30;99142.91;;;-6.18;42.37
68456;BME280;55437;55.046;38.838;2023-02-22T11:09:59;99139.00;;;-6.06;42.35
68456;BME280;55437;55.046;38.838;2023-02-22T11:12:32;99139.88;;;-6.03;42.50
68456;BME280;55437;55.046;38.838;2023-02-22T11:17:44;99132.06;;;-6.18;42.81
68456;BME280;55437;55.046;38.838;2023-02-22T11:20:23;99137.78;;;-6.22;42.94
68456;BME280;55437;55.046;38.838;2023-02-22T11:22:58;99129.31;;;-6.27;43.07
68456;BME280;55437;55.046;38.838;2023-02-22T11:25:31;99137.53;;;-6.33;42.49
68456;BME280;55437;55.046;38.838;2023-02-22T11:28:13;99136.53;;;-6.41;42.81
68456;BME280;55437;55.046;38.838;2023-02-22T11:30:50;99133.47;;;-6.62;42.91
68456;BME280;55437;55.046;38.838;2023-02-22T11:33:19;99151.28;;;-6.48;42.78
68456;BME280;55437;55.046;38.838;2023-02-22T11:35:54;99143.50;;;-6.26;42.89
68456;BME280;55437;55.046;38.838;2023-02-22T11:38:26;99140.69;;;-6.40;42.85
68456;BME280;55437;55.046;38.838;2023-02-22T11:43:45;99148.47;;;-6.62;43.07
68456;BME280;55437;55.046;38.838;2023-02-22T11:49:04;99152.81;;;-6.86;43.85
68456;BME280;55437;55.046;38.838;2023-02-22T11:54:37;99158.78;;;-6.81;43.00
68456;BME280;55437;55.046;38.838;2023-02-22T12:05:00;99182.81;;;-7.16;43.63
68456;BME280;55437;55.046;38.838;2023-02-22T12:07:34;99170.38;;;-7.15;43.88
68456;BME280;55437;55.046;38.838;2023-02-22T12:20:39;99186.84;;;-7.50;44.62
68456;BME280;55437;55.046;38.838;2023-02-22T12:23:15;99191.94;;;-7.45;44.54
68456;BME280;55437;55.046;38.838;2023-02-22T12:26:04;99197.03;;;-7.42;43.77
68456;BME280;55437;55.046;38.838;2023-02-22T12:28:41;99201.78;;;-7.50;44.17
68456;BME280;55437;55.046;38.838;2023-02-22T12:32:21;99202.72;;;-7.46;44.04
68456;BME280;55437;55.046;38.838;2023-02-22T12:37:00;99215.28;;;-7.43;44.28
68456;BME280;55437;55.046;38.838;2023-02-22T12:43:01;99225.41;;;-7.39;44.64
68456;BME280;55437;55.046;38.838;2023-02-22T12:50:50;99234.09;;;-7.53;44.84
68456;BME280;55437;55.046;38.838;2023-02-22T12:54:36;99233.00;;;-7.63;45.03
68456;BME280;55437;55.046;38.838;2023-02-22T12:56:44;99237.19;;;-7.60;44.85
68456;BME280;55437;55.046;38.838;2023-02-22T13:01:49;99231.09;;;-7.70;45.45
68456;BME280;55437;55.046;38.838;2023-02-22T13:04:16;99240.41;;;-7.64;45.41
68456;BME280;55437;55.046;38.838;2023-02-22T13:21:02;99250.13;;;-7.73;45.49
68456;BME280;55437;55.046;38.838;2023-02-22T13:23:52;99257.72;;;-7.69;45.46
68456;BME280;55437;55.046;38.838;2023-02-22T13:26:36;99260.78;;;-7.77;45.89
68456;BME280;55437;55.046;38.838;2023-02-22T13:29:25;99263.09;;;-7.82;45.85
68456;BME280;55437;55.046;38.838;2023-02-22T13:35:11;99256.38;;;-7.84;45.74
68456;BME280;55437;55.046;38.838;2023-02-22T13:46:27;99286.44;;;-8.05;46.08
68456;BME280;55437;55.046;38.838;2023-02-22T13:49:18;99281.34;;;-8.08;46.83
68456;BME280;55437;55.046;38.838;2023-02-22T13:51:51;99284.84;;;-8.03;46.60
68456;BME280;55437;55.046;38.838;2023-02-22T13:55:03;99295.56;;;-8.06;47.02
68456;BME280;55437;55.046;38.838;2023-02-22T13:57:25;99286.31;;;-8.08;47.06
68456;BME280;55437;55.046;38.838;2023-02-22T14:05:54;99302.19;;;-8.31;47.44
68456;BME280;55437;55.046;38.838;2023-02-22T14:16:29;99309.09;;;-8.23;47.27
68456;BME280;55437;55.046;38.838;2023-02-22T14:19:10;99291.72;;;-8.47;47.86
68456;BME280;55437;55.046;38.838;2023-02-22T14:21:59;99308.06;;;-8.53;47.54
68456;BME280;55437;55.046;38.838;2023-02-22T14:24:43;99304.47;;;-8.61;47.92
68456;BME280;55437;55.046;38.838;2023-02-22T14:27:10;99311.81;;;-8.64;47.72
68456;BME280;55437;55.046;38.838;2023-02-22T14:29:55;99313.09;;;-8.76;48.06
68456;BME280;55437;55.046;38.838;2023-02-22T14:32:30;99326.25;;;-8.78;48.42
68456;BME280;55437;55.046;38.838;2023-02-22T14:34:59;99318.47;;;-8.87;48.23
68456;BME280;55437;55.046;38.838;2023-02-22T14:37:37;99317.28;;;-8.97;48.66
68456;BME280;55437;55.046;38.838;2023-02-22T14:43:09;99327.63;;;-9.08;49.25
68456;BME280;55437;55.046;38.838;2023-02-22T14:45:50;99340.53;;;-9.17;49.63
68456;BME280;55437;55.046;38.838;2023-02-22T14:48:24;99334.00;;;-9.15;49.02
68456;BME280;55437;55.046;38.838;2023-02-22T14:51:29;99335.69;;;-9.36;50.03
68456;BME280;55437;55.046;38.838;2023-02-22T14:54:08;99343.38;;;-9.30;49.59
68456;BME280;55437;55.046;38.838;2023-02-22T14:56:59;99346.81;;;-9.27;49.98
68456;BME280;55437;55.046;38.838;2023-02-22T15:00:46;99350.84;;;-9.30;49.68
68456;BME280;55437;55.046;38.838;2023-02-22T15:02:47;99361.72;;;-9.27;49.33
68456;BME280;55437;55.046;38.838;2023-02-22T15:05:19;99359.66;;;-9.16;49.74
68456;BME280;55437;55.046;38.838;2023-02-22T15:08:06;99365.97;;;-9.24;49.58
68456;BME280;55437;55.046;38.838;2023-02-22T15:10:49;99374.84;;;-9.31;49.64
68456;BME280;55437;55.046;38.838;2023-02-22T15:13:24;99370.88;;;-9.26;49.90
68456;BME280;55437;55.046;38.838;2023-02-22T15:16:05;99381.16;;;-9.17;49.96
68456;BME280;55437;55.046;38.838;2023-02-22T15:18:50;99382.09;;;-9.15;49.48